createdAt,value
2022-08-06T00:14:22.087Z,1021.70
2022-08-06T00:29:25.934Z,1021.83
2022-08-06T00:44:23.228Z,1021.98
2022-08-06T00:59:22.194Z,1022.04
2022-08-06T01:14:31.929Z,1022.19
2022-08-06T01:29:22.251Z,1022.26
2022-08-06T01:44:22.292Z,1022.28
2022-08-06T01:59:22.257Z,1022.41
2022-08-06T02:14:22.380Z,1022.44
2022-08-06T02:29:22.413Z,1022.46
2022-08-06T02:44:22.517Z,1022.58
2022-08-06T02:59:22.471Z,1022.76
2022-08-06T03:14:53.845Z,1022.78
2022-08-06T03:29:22.572Z,1022.82
2022-08-06T03:44:22.549Z,1022.84
2022-08-06T03:59:22.547Z,1022.96
2022-08-06T04:14:24.077Z,1023.16
2022-08-06T04:29:25.211Z,1023.18
2022-08-06T04:44:22.633Z,1023.30
2022-08-06T04:59:22.787Z,1023.42
2022-08-06T05:14:22.747Z,1023.58
2022-08-06T05:29:23.229Z,1023.71
2022-08-06T05:44:22.944Z,1023.84
2022-08-06T05:59:37.374Z,1023.92
2022-08-06T06:14:32.396Z,1024.04
2022-08-06T06:30:00.777Z,1023.99
2022-08-06T06:44:24.421Z,1024.07
2022-08-06T06:59:26.237Z,1024.21
2022-08-06T07:14:24.793Z,1024.26
2022-08-06T07:29:50.059Z,1024.40
2022-08-06T07:44:28.912Z,1024.41
2022-08-06T07:59:26.108Z,1024.28
2022-08-06T08:14:23.331Z,1024.48
2022-08-06T08:29:27.423Z,1024.49
2022-08-06T08:44:26.533Z,1024.45
2022-08-06T08:59:59.487Z,1024.39
2022-08-06T09:14:28.391Z,1024.50
2022-08-06T09:29:33.658Z,1024.56
2022-08-06T09:44:35.371Z,1024.66
2022-08-06T09:59:23.630Z,1024.60
2022-08-06T10:14:26.079Z,1024.55
2022-08-06T10:29:24.027Z,1024.40
2022-08-06T10:44:28.506Z,1024.32
2022-08-06T10:59:25.671Z,1024.24
2022-08-06T11:14:23.915Z,1024.17
2022-08-06T11:29:55.239Z,1024.10
2022-08-06T11:44:25.264Z,1024.09
2022-08-06T11:59:24.132Z,1023.99
2022-08-06T12:14:34.022Z,1023.91
2022-08-06T12:29:41.446Z,1023.95
2022-08-06T12:44:56.210Z,1023.93
2022-08-06T12:59:24.620Z,1023.79
2022-08-06T13:14:24.282Z,1023.70
2022-08-06T13:30:34.712Z,1023.50
2022-08-06T13:44:29.182Z,1023.39
2022-08-06T13:59:40.026Z,1023.34
2022-08-06T14:14:24.804Z,1023.27
2022-08-06T14:30:25.362Z,1023.08
2022-08-06T14:44:24.612Z,1022.99
2022-08-06T14:59:25.991Z,1023.01
2022-08-06T15:14:24.551Z,1022.91
2022-08-06T15:29:24.963Z,1022.77
2022-08-06T15:44:30.871Z,1022.67
2022-08-06T15:59:25.050Z,1022.68
2022-08-06T16:14:33.505Z,1022.70
2022-08-06T16:29:24.878Z,1022.67
2022-08-06T16:59:25.078Z,1022.36
2022-08-06T17:14:25.111Z,1022.32
2022-08-06T17:29:45.554Z,1022.25
2022-08-06T17:44:25.049Z,1022.31
2022-08-06T17:59:29.756Z,1022.33
2022-08-06T18:14:32.985Z,1022.31
2022-08-06T18:29:58.877Z,1022.38
2022-08-06T18:44:27.354Z,1022.47
2022-08-06T18:59:28.374Z,1022.62
2022-08-06T19:14:25.437Z,1022.74
2022-08-06T19:29:56.915Z,1022.76
2022-08-06T19:44:33.207Z,1022.83
2022-08-06T20:00:51.489Z,1022.92
2022-08-06T20:14:25.544Z,1023.01
2022-08-06T20:30:03.146Z,1023.10
2022-08-06T20:44:25.563Z,1023.26
2022-08-06T20:59:37.384Z,1023.14
2022-08-06T21:14:30.564Z,1023.12
2022-08-06T21:30:07.928Z,1023.16
2022-08-06T21:44:27.789Z,1023.19
2022-08-06T21:59:25.728Z,1023.14
2022-08-06T22:14:28.745Z,1023.16
2022-08-06T22:29:27.335Z,1023.05
2022-08-06T22:44:30.673Z,1022.92
2022-08-06T23:00:06.671Z,1022.90
2022-08-06T23:14:31.656Z,1022.96
2022-08-06T23:29:26.611Z,1022.89
2022-08-06T23:44:28.731Z,1022.88
2022-08-06T23:59:44.069Z,1022.80
